sensor_id;sensor_type;location;lat;lon;timestamp;temperature;humidity
69054;DHT22;56125;52.242;4.756;2022-12-24T00:02:57;18.20;53.00
69054;DHT22;56125;52.242;4.756;2022-12-24T00:07:58;18.20;53.00
69054;DHT22;56125;52.242;4.756;2022-12-24T00:12:59;18.10;53.00
69054;DHT22;56125;52.242;4.756;2022-12-24T00:18:00;18.10;53.00
69054;DHT22;56125;52.242;4.756;2022-12-24T00:23:01;18.10;54.10
69054;DHT22;56125;52.242;4.756;2022-12-24T00:28:02;18.10;53.00
69054;DHT22;56125;52.242;4.756;2022-12-24T00:33:04;18.10;53.00
69054;DHT22;56125;52.242;4.756;2022-12-24T00:38:05;18.10;52.90
69054;DHT22;56125;52.242;4.756;2022-12-24T00:43:06;18.10;52.90
69054;DHT22;56125;52.242;4.756;2022-12-24T00:48:07;18.10;52.90
69054;DHT22;56125;52.242;4.756;2022-12-24T00:53:08;18.10;52.90
69054;DHT22;56125;52.242;4.756;2022-12-24T00:58:09;18.10;52.90
69054;DHT22;56125;52.242;4.756;2022-12-24T01:03:10;18.00;52.80
69054;DHT22;56125;52.242;4.756;2022-12-24T01:08:11;18.00;52.90
69054;DHT22;56125;52.242;4.756;2022-12-24T01:13:12;18.00;53.80
69054;DHT22;56125;52.242;4.756;2022-12-24T01:18:14;18.00;52.80
69054;DHT22;56125;52.242;4.756;2022-12-24T01:23:15;18.00;52.80
69054;DHT22;56125;52.242;4.756;2022-12-24T01:28:16;18.00;53.70
69054;DHT22;56125;52.242;4.756;2022-12-24T01:33:17;18.00;52.80
69054;DHT22;56125;52.242;4.756;2022-12-24T01:38:18;18.00;52.70
69054;DHT22;56125;52.242;4.756;2022-12-24T01:43:21;18.00;52.70
69054;DHT22;56125;52.242;4.756;2022-12-24T01:53:34;18.00;52.70
69054;DHT22;56125;52.242;4.756;2022-12-24T01:58:39;18.00;52.70
69054;DHT22;56125;52.242;4.756;2022-12-24T02:03:43;18.00;52.70
69054;DHT22;56125;52.242;4.756;2022-12-24T02:08:44;17.90;52.60
69054;DHT22;56125;52.242;4.756;2022-12-24T02:13:52;17.90;52.60
69054;DHT22;56125;52.242;4.756;2022-12-24T02:29:59;17.90;52.70
69054;DHT22;56125;52.242;4.756;2022-12-24T02:35:19;17.90;52.70
69054;DHT22;56125;52.242;4.756;2022-12-24T02:40:35;17.90;52.70
69054;DHT22;56125;52.242;4.756;2022-12-24T02:45:39;17.90;52.70
69054;DHT22;56125;52.242;4.756;2022-12-24T02:51:02;17.90;52.60
69054;DHT22;56125;52.242;4.756;2022-12-24T03:11:49;17.80;52.80
69054;DHT22;56125;52.242;4.756;2022-12-24T03:16:50;17.90;52.70
69054;DHT22;56125;52.242;4.756;2022-12-24T03:21:54;17.90;52.70
69054;DHT22;56125;52.242;4.756;2022-12-24T03:26:56;17.80;52.70
69054;DHT22;56125;52.242;4.756;2022-12-24T03:32:01;17.90;52.70
69054;DHT22;56125;52.242;4.756;2022-12-24T03:37:03;17.80;52.70
69054;DHT22;56125;52.242;4.756;2022-12-24T03:42:04;17.80;52.80
69054;DHT22;56125;52.242;4.756;2022-12-24T03:47:05;17.80;52.80
69054;DHT22;56125;52.242;4.756;2022-12-24T03:52:06;17.80;52.90
69054;DHT22;56125;52.242;4.756;2022-12-24T03:57:07;17.80;52.80
69054;DHT22;56125;52.242;4.756;2022-12-24T04:02:08;17.80;52.90
69054;DHT22;56125;52.242;4.756;2022-12-24T04:07:09;17.80;52.80
69054;DHT22;56125;52.242;4.756;2022-12-24T04:12:10;18.80;53.40
69054;DHT22;56125;52.242;4.756;2022-12-24T04:17:11;17.80;52.80
69054;DHT22;56125;52.242;4.756;2022-12-24T04:22:12;17.80;52.80
69054;DHT22;56125;52.242;4.756;2022-12-24T04:27:16;17.80;52.90
69054;DHT22;56125;52.242;4.756;2022-12-24T04:32:17;17.80;52.90
69054;DHT22;56125;52.242;4.756;2022-12-24T04:37:18;17.90;53.00
69054;DHT22;56125;52.242;4.756;2022-12-24T04:42:19;17.90;53.10
69054;DHT22;56125;52.242;4.756;2022-12-24T04:47:20;17.80;53.00
69054;DHT22;56125;52.242;4.756;2022-12-24T04:52:21;17.80;53.00
69054;DHT22;56125;52.242;4.756;2022-12-24T04:57:22;17.80;53.10
69054;DHT22;56125;52.242;4.756;2022-12-24T05:02:24;17.80;53.20
69054;DHT22;56125;52.242;4.756;2022-12-24T05:07:25;17.80;53.20
69054;DHT22;56125;52.242;4.756;2022-12-24T05:12:26;17.80;53.20
69054;DHT22;56125;52.242;4.756;2022-12-24T05:17:27;17.80;53.20
69054;DHT22;56125;52.242;4.756;2022-12-24T05:22:28;17.80;53.20
69054;DHT22;56125;52.242;4.756;2022-12-24T05:27:47;17.80;53.20
69054;DHT22;56125;52.242;4.756;2022-12-24T05:32:48;17.80;53.30
69054;DHT22;56125;52.242;4.756;2022-12-24T05:37:49;17.80;53.30
69054;DHT22;56125;52.242;4.756;2022-12-24T05:42:50;17.80;53.30
69054;DHT22;56125;52.242;4.756;2022-12-24T05:47:51;17.80;53.50
69054;DHT22;56125;52.242;4.756;2022-12-24T05:52:52;17.80;53.40
69054;DHT22;56125;52.242;4.756;2022-12-24T05:57:53;17.80;53.40
69054;DHT22;56125;52.242;4.756;2022-12-24T06:02:54;17.80;53.40
69054;DHT22;56125;52.242;4.756;2022-12-24T06:07:55;17.80;53.40
69054;DHT22;56125;52.242;4.756;2022-12-24T06:12:56;17.80;53.40
69054;DHT22;56125;52.242;4.756;2022-12-24T06:17:57;17.80;53.40
69054;DHT22;56125;52.242;4.756;2022-12-24T06:22:58;17.80;53.40
69054;DHT22;56125;52.242;4.756;2022-12-24T06:27:59;17.80;53.30
69054;DHT22;56125;52.242;4.756;2022-12-24T06:33:00;17.80;53.40
69054;DHT22;56125;52.242;4.756;2022-12-24T06:38:01;17.80;53.40
69054;DHT22;56125;52.242;4.756;2022-12-24T06:43:02;17.80;53.40
69054;DHT22;56125;52.242;4.756;2022-12-24T06:48:04;17.80;53.50
69054;DHT22;56125;52.242;4.756;2022-12-24T06:53:06;17.80;53.70
69054;DHT22;56125;52.242;4.756;2022-12-24T06:58:07;17.80;53.40
69054;DHT22;56125;52.242;4.756;2022-12-24T07:03:08;17.80;53.20
69054;DHT22;56125;52.242;4.756;2022-12-24T07:08:09;17.80;53.30
69054;DHT22;56125;52.242;4.756;2022-12-24T07:13:10;17.80;53.30
69054;DHT22;56125;52.242;4.756;2022-12-24T07:18:11;17.80;53.20
69054;DHT22;56125;52.242;4.756;2022-12-24T07:23:12;17.80;53.20
69054;DHT22;56125;52.242;4.756;2022-12-24T07:28:13;17.80;53.20
69054;DHT22;56125;52.242;4.756;2022-12-24T07:33:14;17.80;53.20
69054;DHT22;56125;52.242;4.756;2022-12-24T07:38:15;17.80;53.30
69054;DHT22;56125;52.242;4.756;2022-12-24T07:43:16;17.70;53.20
69054;DHT22;56125;52.242;4.756;2022-12-24T07:48:17;17.80;53.30
69054;DHT22;56125;52.242;4.756;2022-12-24T07:53:19;17.80;53.20
69054;DHT22;56125;52.242;4.756;2022-12-24T07:58:21;17.80;53.20
69054;DHT22;56125;52.242;4.756;2022-12-24T08:03:22;17.80;53.20
69054;DHT22;56125;52.242;4.756;2022-12-24T08:08:23;17.80;53.10
69054;DHT22;56125;52.242;4.756;2022-12-24T08:13:24;17.80;53.10
69054;DHT22;56125;52.242;4.756;2022-12-24T08:18:26;17.80;53.10
69054;DHT22;56125;52.242;4.756;2022-12-24T08:23:27;17.80;53.10
69054;DHT22;56125;52.242;4.756;2022-12-24T08:28:28;17.80;53.10
69054;DHT22;56125;52.242;4.756;2022-12-24T08:33:29;17.80;53.10
69054;DHT22;56125;52.242;4.756;2022-12-24T08:38:31;17.80;53.10
69054;DHT22;56125;52.242;4.756;2022-12-24T08:43:32;17.70;53.10
69054;DHT22;56125;52.242;4.756;2022-12-24T08:48:33;17.70;53.10
69054;DHT22;56125;52.242;4.756;2022-12-24T08:53:37;17.70;53.00
69054;DHT22;56125;52.242;4.756;2022-12-24T08:58:39;17.80;53.10
69054;DHT22;56125;52.242;4.756;2022-12-24T09:03:40;17.70;53.20
69054;DHT22;56125;52.242;4.756;2022-12-24T09:08:41;17.70;53.20
69054;DHT22;56125;52.242;4.756;2022-12-24T09:13:43;17.70;53.10
69054;DHT22;56125;52.242;4.756;2022-12-24T09:18:44;17.70;53.10
69054;DHT22;56125;52.242;4.756;2022-12-24T09:23:46;17.80;53.70
69054;DHT22;56125;52.242;4.756;2022-12-24T09:28:48;18.00;54.00
69054;DHT22;56125;52.242;4.756;2022-12-24T09:33:51;18.30;53.10
69054;DHT22;56125;52.242;4.756;2022-12-24T09:38:54;18.60;52.60
69054;DHT22;56125;52.242;4.756;2022-12-24T09:49:38;19.10;51.30
69054;DHT22;56125;52.242;4.756;2022-12-24T09:54:44;19.20;51.20
69054;DHT22;56125;52.242;4.756;2022-12-24T09:59:48;19.10;51.50
69054;DHT22;56125;52.242;4.756;2022-12-24T10:04:50;19.10;51.90
69054;DHT22;56125;52.242;4.756;2022-12-24T10:15:16;19.10;52.40
69054;DHT22;56125;52.242;4.756;2022-12-24T10:30:58;19.20;51.90
69054;DHT22;56125;52.242;4.756;2022-12-24T10:36:01;19.40;51.30
69054;DHT22;56125;52.242;4.756;2022-12-24T10:41:03;19.40;51.00
69054;DHT22;56125;52.242;4.756;2022-12-24T10:46:07;19.40;51.10
69054;DHT22;56125;52.242;4.756;2022-12-24T10:56:25;19.30;51.10
69054;DHT22;56125;52.242;4.756;2022-12-24T11:01:46;19.40;50.90
69054;DHT22;56125;52.242;4.756;2022-12-24T11:07:03;19.40;50.90
69054;DHT22;56125;52.242;4.756;2022-12-24T11:12:16;19.40;50.80
69054;DHT22;56125;52.242;4.756;2022-12-24T11:17:20;19.40;50.70
69054;DHT22;56125;52.242;4.756;2022-12-24T11:22:30;19.40;50.60
69054;DHT22;56125;52.242;4.756;2022-12-24T11:27:43;19.40;50.70
69054;DHT22;56125;52.242;4.756;2022-12-24T11:32:49;19.40;50.60
69054;DHT22;56125;52.242;4.756;2022-12-24T11:43:01;19.40;50.40
69054;DHT22;56125;52.242;4.756;2022-12-24T11:48:29;19.40;50.30
69054;DHT22;56125;52.242;4.756;2022-12-24T11:53:40;19.60;51.00
69054;DHT22;56125;52.242;4.756;2022-12-24T11:58:52;19.70;49.60
69054;DHT22;56125;52.242;4.756;2022-12-24T12:03:58;19.70;49.60
69054;DHT22;56125;52.242;4.756;2022-12-24T12:09:14;19.70;49.60
69054;DHT22;56125;52.242;4.756;2022-12-24T12:14:26;19.60;49.60
69054;DHT22;56125;52.242;4.756;2022-12-24T12:19:40;19.60;49.70
69054;DHT22;56125;52.242;4.756;2022-12-24T12:24:46;19.60;49.60
69054;DHT22;56125;52.242;4.756;2022-12-24T12:29:58;19.60;49.60
69054;DHT22;56125;52.242;4.756;2022-12-24T12:35:12;19.70;49.60
69054;DHT22;56125;52.242;4.756;2022-12-24T12:40:16;19.70;49.50
69054;DHT22;56125;52.242;4.756;2022-12-24T12:45:34;19.70;49.50
69054;DHT22;56125;52.242;4.756;2022-12-24T12:50:59;19.70;49.60
69054;DHT22;56125;52.242;4.756;2022-12-24T12:56:38;19.70;49.50
69054;DHT22;56125;52.242;4.756;2022-12-24T13:01:42;19.70;49.40
69054;DHT22;56125;52.242;4.756;2022-12-24T13:07:05;19.70;49.40
69054;DHT22;56125;52.242;4.756;2022-12-24T13:12:25;19.70;49.40
69054;DHT22;56125;52.242;4.756;2022-12-24T13:23:16;19.80;49.40
69054;DHT22;56125;52.242;4.756;2022-12-24T13:49:18;19.80;49.20
69054;DHT22;56125;52.242;4.756;2022-12-24T13:54:23;19.90;49.20
69054;DHT22;56125;52.242;4.756;2022-12-24T13:59:36;19.90;49.20
69054;DHT22;56125;52.242;4.756;2022-12-24T14:04:37;19.90;49.20
69054;DHT22;56125;52.242;4.756;2022-12-24T14:09:47;19.90;49.10
69054;DHT22;56125;52.242;4.756;2022-12-24T14:14:49;19.90;49.10
69054;DHT22;56125;52.242;4.756;2022-12-24T14:19:53;19.90;49.00
69054;DHT22;56125;52.242;4.756;2022-12-24T14:24:58;19.90;49.00
69054;DHT22;56125;52.242;4.756;2022-12-24T14:30:05;19.90;48.90
69054;DHT22;56125;52.242;4.756;2022-12-24T14:35:12;19.90;48.80
69054;DHT22;56125;52.242;4.756;2022-12-24T14:40:20;19.90;48.80
69054;DHT22;56125;52.242;4.756;2022-12-24T14:45:32;19.90;48.70
69054;DHT22;56125;52.242;4.756;2022-12-24T14:56:28;19.90;48.60
69054;DHT22;56125;52.242;4.756;2022-12-24T15:01:31;19.90;48.60
69054;DHT22;56125;52.242;4.756;2022-12-24T15:06:37;19.90;48.60
69054;DHT22;56125;52.242;4.756;2022-12-24T15:11:43;19.90;49.10
69054;DHT22;56125;52.242;4.756;2022-12-24T15:16:58;19.70;49.60
69054;DHT22;56125;52.242;4.756;2022-12-24T15:22:00;19.60;50.10
69054;DHT22;56125;52.242;4.756;2022-12-24T15:27:16;19.50;50.50
69054;DHT22;56125;52.242;4.756;2022-12-24T15:32:19;19.50;50.80
69054;DHT22;56125;52.242;4.756;2022-12-24T15:37:22;19.40;50.80
69054;DHT22;56125;52.242;4.756;2022-12-24T15:42:25;19.40;50.80
69054;DHT22;56125;52.242;4.756;2022-12-24T15:47:30;19.40;50.70
69054;DHT22;56125;52.242;4.756;2022-12-24T15:52:39;19.30;50.60
69054;DHT22;56125;52.242;4.756;2022-12-24T15:57:40;19.30;50.60
69054;DHT22;56125;52.242;4.756;2022-12-24T16:02:43;19.30;50.50
69054;DHT22;56125;52.242;4.756;2022-12-24T16:08:04;19.30;50.50
69054;DHT22;56125;52.242;4.756;2022-12-24T16:13:27;19.20;50.50
69054;DHT22;56125;52.242;4.756;2022-12-24T16:18:34;19.20;50.50
69054;DHT22;56125;52.242;4.756;2022-12-24T16:23:45;19.20;50.50
69054;DHT22;56125;52.242;4.756;2022-12-24T16:28:47;19.10;50.40
69054;DHT22;56125;52.242;4.756;2022-12-24T16:33:51;19.10;50.40
69054;DHT22;56125;52.242;4.756;2022-12-24T16:38:52;19.10;50.40
69054;DHT22;56125;52.242;4.756;2022-12-24T16:44:12;19.10;50.50
69054;DHT22;56125;52.242;4.756;2022-12-24T16:49:17;19.10;50.50
69054;DHT22;56125;52.242;4.756;2022-12-24T16:54:18;19.00;50.40
69054;DHT22;56125;52.242;4.756;2022-12-24T16:59:22;19.00;50.40
69054;DHT22;56125;52.242;4.756;2022-12-24T17:04:24;19.00;50.50
69054;DHT22;56125;52.242;4.756;2022-12-24T17:09:25;19.00;50.50
69054;DHT22;56125;52.242;4.756;2022-12-24T17:14:26;19.00;50.50
69054;DHT22;56125;52.242;4.756;2022-12-24T17:19:27;18.90;50.30
69054;DHT22;56125;52.242;4.756;2022-12-24T17:24:28;18.90;50.40
69054;DHT22;56125;52.242;4.756;2022-12-24T17:29:29;18.80;50.40
69054;DHT22;56125;52.242;4.756;2022-12-24T17:34:30;18.80;50.30
69054;DHT22;56125;52.242;4.756;2022-12-24T17:39:31;18.80;50.40
69054;DHT22;56125;52.242;4.756;2022-12-24T17:44:32;18.70;50.30
69054;DHT22;56125;52.242;4.756;2022-12-24T17:49:33;18.70;50.30
69054;DHT22;56125;52.242;4.756;2022-12-24T17:54:34;18.70;50.30
69054;DHT22;56125;52.242;4.756;2022-12-24T17:59:35;18.70;50.20
69054;DHT22;56125;52.242;4.756;2022-12-24T18:04:36;18.70;50.20
69054;DHT22;56125;52.242;4.756;2022-12-24T18:09:37;18.60;50.10
69054;DHT22;56125;52.242;4.756;2022-12-24T18:14:38;18.60;50.10
69054;DHT22;56125;52.242;4.756;2022-12-24T18:19:39;18.60;50.00
69054;DHT22;56125;52.242;4.756;2022-12-24T18:24:40;18.60;50.10
69054;DHT22;56125;52.242;4.756;2022-12-24T18:29:41;18.60;49.90
69054;DHT22;56125;52.242;4.756;2022-12-24T18:34:43;18.60;50.00
69054;DHT22;56125;52.242;4.756;2022-12-24T18:39:44;18.50;49.90
69054;DHT22;56125;52.242;4.756;2022-12-24T18:44:45;18.50;50.00
69054;DHT22;56125;52.242;4.756;2022-12-24T18:49:46;18.50;49.90
69054;DHT22;56125;52.242;4.756;2022-12-24T18:54:48;18.50;50.00
69054;DHT22;56125;52.242;4.756;2022-12-24T18:59:50;18.50;49.90
69054;DHT22;56125;52.242;4.756;2022-12-24T19:04:51;18.50;50.00
69054;DHT22;56125;52.242;4.756;2022-12-24T19:09:52;18.50;50.00
69054;DHT22;56125;52.242;4.756;2022-12-24T19:14:53;18.40;50.00
69054;DHT22;56125;52.242;4.756;2022-12-24T19:19:54;18.40;50.10
69054;DHT22;56125;52.242;4.756;2022-12-24T19:24:55;18.40;50.20
69054;DHT22;56125;52.242;4.756;2022-12-24T19:29:56;18.30;50.20
69054;DHT22;56125;52.242;4.756;2022-12-24T19:34:57;18.30;50.30
69054;DHT22;56125;52.242;4.756;2022-12-24T19:39:58;18.30;50.30
69054;DHT22;56125;52.242;4.756;2022-12-24T19:44:59;18.30;50.30
69054;DHT22;56125;52.242;4.756;2022-12-24T19:50:00;18.30;50.30
69054;DHT22;56125;52.242;4.756;2022-12-24T19:55:01;18.40;50.40
69054;DHT22;56125;52.242;4.756;2022-12-24T20:00:03;18.40;50.50
69054;DHT22;56125;52.242;4.756;2022-12-24T20:05:05;18.30;50.50
69054;DHT22;56125;52.242;4.756;2022-12-24T20:10:07;18.30;50.50
69054;DHT22;56125;52.242;4.756;2022-12-24T20:15:08;18.30;50.80
69054;DHT22;56125;52.242;4.756;2022-12-24T20:20:10;18.30;50.50
69054;DHT22;56125;52.242;4.756;2022-12-24T20:25:11;18.30;50.60
69054;DHT22;56125;52.242;4.756;2022-12-24T20:30:12;18.30;50.60
69054;DHT22;56125;52.242;4.756;2022-12-24T20:35:13;18.30;50.60
69054;DHT22;56125;52.242;4.756;2022-12-24T20:40:15;18.30;50.60
69054;DHT22;56125;52.242;4.756;2022-12-24T20:45:16;18.30;50.50
69054;DHT22;56125;52.242;4.756;2022-12-24T20:50:17;18.30;50.60
69054;DHT22;56125;52.242;4.756;2022-12-24T20:55:19;18.30;50.70
69054;DHT22;56125;52.242;4.756;2022-12-24T21:00:21;18.30;50.70
69054;DHT22;56125;52.242;4.756;2022-12-24T21:05:22;18.30;51.80
69054;DHT22;56125;52.242;4.756;2022-12-24T21:10:23;18.30;50.70
69054;DHT22;56125;52.242;4.756;2022-12-24T21:15:29;18.20;50.70
69054;DHT22;56125;52.242;4.756;2022-12-24T21:20:30;18.20;50.70
69054;DHT22;56125;52.242;4.756;2022-12-24T21:25:32;18.20;50.70
69054;DHT22;56125;52.242;4.756;2022-12-24T21:30:33;18.20;50.80
69054;DHT22;56125;52.242;4.756;2022-12-24T21:35:34;18.20;50.80
69054;DHT22;56125;52.242;4.756;2022-12-24T21:40:35;18.20;50.80
69054;DHT22;56125;52.242;4.756;2022-12-24T21:45:39;18.20;50.90
69054;DHT22;56125;52.242;4.756;2022-12-24T21:50:42;18.20;50.90
69054;DHT22;56125;52.242;4.756;2022-12-24T21:56:06;18.20;51.00
69054;DHT22;56125;52.242;4.756;2022-12-24T22:01:08;18.10;51.00
69054;DHT22;56125;52.242;4.756;2022-12-24T22:06:09;18.10;51.00
69054;DHT22;56125;52.242;4.756;2022-12-24T22:11:31;18.10;51.10
69054;DHT22;56125;52.242;4.756;2022-12-24T22:16:50;18.10;51.20
69054;DHT22;56125;52.242;4.756;2022-12-24T22:21:51;18.10;51.80
69054;DHT22;56125;52.242;4.756;2022-12-24T22:26:52;18.10;51.20
69054;DHT22;56125;52.242;4.756;2022-12-24T22:31:53;18.00;51.20
69054;DHT22;56125;52.242;4.756;2022-12-24T22:36:54;18.10;52.30
69054;DHT22;56125;52.242;4.756;2022-12-24T22:41:55;18.10;51.10
69054;DHT22;56125;52.242;4.756;2022-12-24T22:46:57;18.00;51.20
69054;DHT22;56125;52.242;4.756;2022-12-24T22:51:58;18.00;51.10
69054;DHT22;56125;52.242;4.756;2022-12-24T22:56:59;18.00;51.20
69054;DHT22;56125;52.242;4.756;2022-12-24T23:02:03;18.00;51.20
69054;DHT22;56125;52.242;4.756;2022-12-24T23:07:06;18.00;51.20
69054;DHT22;56125;52.242;4.756;2022-12-24T23:12:07;18.00;51.20
69054;DHT22;56125;52.242;4.756;2022-12-24T23:17:09;18.00;51.20
69054;DHT22;56125;52.242;4.756;2022-12-24T23:22:10;18.00;51.20
69054;DHT22;56125;52.242;4.756;2022-12-24T23:27:11;18.00;51.30
69054;DHT22;56125;52.242;4.756;2022-12-24T23:32:12;17.90;51.20
69054;DHT22;56125;52.242;4.756;2022-12-24T23:37:13;18.30;51.50
69054;DHT22;56125;52.242;4.756;2022-12-24T23:42:14;17.90;51.30
69054;DHT22;56125;52.242;4.756;2022-12-24T23:47:16;17.90;51.40
69054;DHT22;56125;52.242;4.756;2022-12-24T23:52:17;17.90;51.40
69054;DHT22;56125;52.242;4.756;2022-12-24T23:57:19;17.90;51.40
